Time;durP1;ratioP1;P1;durP2;ratioP2;P2;SDS_P1;SDS_P2;PMS_P1;PMS_P2;Temp;Humidity;BMP_temperature;BMP_pressure;BME280_temperature;BME280_humidity;BME280_pressure;Samples;Min_cycle;Max_cycle;Signal;HPM_P1;HPM_P2
2021/07/13 04:34:53;;;;;;;1.00;1.00;;;;;;;22.68;64.01;98580.50;5097854;23;1690793;-96
2021/07/13 04:37:19;;;;;;;1.08;1.00;;;;;;;23.05;62.67;98590.50;4990542;28;20053;-96
2021/07/13 04:39:44;;;;;;;1.10;1.10;;;;;;;23.86;61.76;98648.00;4988453;28;20049;-90
2021/07/13 04:42:10;;;;;;;0.90;0.90;;;;;;;24.54;59.71;98674.94;4996652;28;20033;-95
2021/07/13 04:44:35;;;;;;;3.47;2.95;;;;;;;24.67;59.64;98623.41;4985733;28;20025;-95
2021/07/13 04:47:01;;;;;;;8.77;1.55;;;;;;;24.64;58.95;98596.25;4984179;28;20509;-96
2021/07/13 04:49:31;;;;;;;1.67;1.55;;;;;;;25.49;58.18;98668.72;4980702;28;20058;-91
2021/07/13 04:51:58;;;;;;;2.97;2.33;;;;;;;25.84;56.66;98661.97;4979909;28;20026;-92
2021/07/13 04:54:23;;;;;;;1.67;1.58;;;;;;;26.34;55.27;98678.00;4979428;28;20022;-95
2021/07/13 04:56:49;;;;;;;10.68;2.40;;;;;;;26.79;54.60;98667.81;4981076;28;20034;-93
2021/07/13 04:59:15;;;;;;;0.77;0.77;;;;;;;26.99;52.82;98619.72;4983748;28;20035;-96
2021/07/13 05:02:12;;;;;;;1.38;1.30;;;;;;;27.52;52.00;98670.53;3681123;23;20230;-88
2021/07/13 05:04:38;;;;;;;1.55;1.45;;;;;;;27.29;51.30;98584.44;4984092;28;20050;-95
2021/07/13 05:07:04;;;;;;;2.13;1.40;;;;;;;27.71;50.89;98570.97;4983414;28;20038;-96
2021/07/13 05:09:29;;;;;;;2.72;1.13;;;;;;;28.22;49.55;98623.00;4981429;28;20030;-93
2021/07/13 05:11:55;;;;;;;0.60;0.60;;;;;;;28.07;49.53;98647.69;4980021;28;20089;-94
2021/07/13 05:14:20;;;;;;;1.95;1.17;;;;;;;27.69;49.22;98605.59;4983053;28;20061;-93
2021/07/13 05:16:46;;;;;;;2.88;1.52;;;;;;;28.43;48.03;98637.13;4978878;28;20534;-91
2021/07/13 05:19:13;;;;;;;0.90;0.88;;;;;;;29.18;48.00;98666.41;4962737;28;20085;-94
2021/07/13 05:21:41;;;;;;;1.88;0.52;;;;;;;29.85;45.06;98667.84;4969212;28;20045;-96
2021/07/13 05:24:07;;;;;;;0.90;0.73;;;;;;;30.02;44.05;98662.34;4949253;29;20032;-92
2021/07/13 05:26:32;;;;;;;1.27;1.17;;;;;;;30.64;43.81;98675.13;4944530;28;20035;-93
2021/07/13 05:29:02;;;;;;;0.50;0.50;;;;;;;31.96;40.45;98663.88;4965307;28;20475;-90
2021/07/13 05:31:28;;;;;;;1.40;1.20;;;;;;;32.67;38.11;98644.88;4961287;28;20033;-90
2021/07/13 05:33:57;;;;;;;0.63;0.63;;;;;;;34.17;36.99;98668.97;4959106;28;20030;-90
2021/07/13 05:36:25;;;;;;;0.75;0.75;;;;;;;34.93;33.28;98672.50;4959538;28;20027;-92
2021/07/13 05:38:53;;;;;;;1.88;1.60;;;;;;;35.46;33.37;98654.84;4960931;28;20033;-96
2021/07/13 05:41:20;;;;;;;0.82;0.82;;;;;;;36.57;32.17;98655.25;4964408;28;20034;-93
2021/07/13 05:43:46;;;;;;;0.77;0.77;;;;;;;37.64;30.07;98664.34;4962054;28;20117;-92
2021/07/13 05:46:11;;;;;;;0.75;0.75;;;;;;;37.94;28.41;98659.69;4960450;28;20050;-95
2021/07/13 05:48:36;;;;;;;0.60;0.60;;;;;;;38.58;28.54;98672.28;4962100;28;20113;-92
2021/07/13 05:51:02;;;;;;;0.50;0.50;;;;;;;38.74;27.34;98671.72;4960748;28;20030;-96
2021/07/13 05:53:27;;;;;;;1.25;1.10;;;;;;;38.93;26.98;98674.31;4959964;28;20466;-96
2021/07/13 05:55:53;;;;;;;1.30;1.20;;;;;;;39.40;26.90;98652.41;4961994;28;20031;-94
2021/07/13 05:58:22;;;;;;;1.65;1.55;;;;;;;40.27;25.71;98682.38;4962265;28;20034;-91
2021/07/13 06:00:48;;;;;;;0.60;0.60;;;;;;;40.92;24.48;98663.25;4958980;28;20038;-88
2021/07/13 06:03:13;;;;;;;0.73;0.73;;;;;;;41.90;23.00;98668.59;4957386;28;20162;-86
2021/07/13 06:05:39;;;;;;;0.93;0.90;;;;;;;42.66;21.99;98664.66;4959467;28;20155;-85
2021/07/13 06:08:04;;;;;;;2.13;0.93;;;;;;;43.29;21.32;98668.00;4958241;28;20031;-84
2021/07/13 06:10:30;;;;;;;2.07;0.83;;;;;;;43.27;20.92;98667.94;4947965;29;20036;-91
2021/07/13 06:12:57;;;;;;;0.70;0.70;;;;;;;43.14;21.12;98671.78;4958204;28;20050;-92
2021/07/13 06:15:22;;;;;;;0.40;0.40;;;;;;;42.91;20.08;98652.66;4958439;28;20027;-91
2021/07/13 06:17:48;;;;;;;1.80;0.43;;;;;;;43.28;20.81;98651.22;4958411;28;20030;-89
2021/07/13 06:20:14;;;;;;;1.63;0.67;;;;;;;43.75;20.22;98666.16;4958423;28;20089;-86
2021/07/13 06:22:40;;;;;;;0.98;0.80;;;;;;;43.80;20.41;98667.03;4945160;29;20040;-91
2021/07/13 06:25:06;;;;;;;3.47;2.03;;;;;;;44.44;19.00;98650.41;4942765;28;20090;-89
2021/07/13 06:27:31;;;;;;;1.17;1.02;;;;;;;45.02;18.82;98657.47;4958670;28;20094;-90
2021/07/13 06:29:57;;;;;;;1.00;0.83;;;;;;;45.31;18.21;98659.88;4958198;28;20410;-91
2021/07/13 06:32:22;;;;;;;0.60;0.60;;;;;;;45.02;18.42;98651.66;4958488;28;20031;-94
2021/07/13 06:34:48;;;;;;;0.43;0.43;;;;;;;45.54;17.75;98648.88;4958382;28;20026;-93
2021/07/13 06:37:13;;;;;;;2.57;1.53;;;;;;;45.51;18.78;98668.53;4958252;28;20031;-92
2021/07/13 06:39:39;;;;;;;0.83;0.77;;;;;;;45.50;17.90;98648.78;4958143;28;20039;-92
2021/07/13 06:42:04;;;;;;;2.20;1.47;;;;;;;45.17;18.50;98617.84;4975272;28;20061;-91
2021/07/13 06:44:30;;;;;;;0.67;0.67;;;;;;;45.57;18.05;98630.75;4957738;28;20033;-92
2021/07/13 06:46:55;;;;;;;1.23;0.67;;;;;;;45.98;17.66;98661.13;4957220;28;20038;-92
2021/07/13 06:49:20;;;;;;;2.37;1.00;;;;;;;46.02;18.33;98637.88;4957211;28;20027;-92
2021/07/13 06:51:46;;;;;;;0.33;0.33;;;;;;;46.16;17.89;98653.63;4956865;28;20427;-92
2021/07/13 06:54:12;;;;;;;1.80;0.70;;;;;;;44.67;18.00;98654.84;4957011;28;20399;-91
2021/07/13 06:56:37;;;;;;;1.33;1.10;;;;;;;42.18;19.67;98643.75;4957791;28;20455;-91
2021/07/13 06:59:02;;;;;;;3.10;1.67;;;;;;;41.95;20.30;98634.72;4958164;28;20113;-90
2021/07/13 07:01:28;;;;;;;1.43;1.07;;;;;;;42.24;20.23;98646.16;4958030;28;20545;-95
2021/07/13 07:03:53;;;;;;;1.03;0.70;;;;;;;42.81;20.10;98642.75;4958090;28;20050;-94
2021/07/13 07:06:19;;;;;;;0.83;0.83;;;;;;;43.30;19.89;98637.50;4958578;28;20422;-92
2021/07/13 07:08:44;;;;;;;1.73;0.70;;;;;;;43.09;19.72;98611.94;4958033;28;20510;-92
2021/07/13 07:11:11;;;;;;;1.13;1.03;;;;;;;43.15;19.91;98629.63;4974709;28;20409;-92
2021/07/13 07:13:37;;;;;;;0.63;0.63;;;;;;;42.04;20.59;98637.31;4958408;28;20130;-93
2021/07/13 07:16:02;;;;;;;1.30;1.13;;;;;;;41.30;22.68;98620.84;4957498;28;20118;-94
2021/07/13 07:18:28;;;;;;;0.80;0.80;;;;;;;41.92;21.86;98622.25;4958370;28;20023;-96
2021/07/13 07:20:53;;;;;;;1.27;0.57;;;;;;;42.32;20.76;98626.19;4957947;28;20034;-92
2021/07/13 07:23:19;;;;;;;0.88;0.88;;;;;;;41.13;21.33;98606.25;4958178;28;20479;-91
2021/07/13 07:25:44;;;;;;;0.50;0.50;;;;;;;40.67;22.88;98591.03;4958042;28;20034;-94
2021/07/13 07:28:11;;;;;;;1.88;0.95;;;;;;;40.42;22.40;98629.59;4957735;28;20066;-88
2021/07/13 07:30:37;;;;;;;0.60;0.60;;;;;;;40.56;22.34;98603.50;4957775;28;20475;-92
2021/07/13 07:33:03;;;;;;;0.85;0.73;;;;;;;41.80;21.92;98613.00;4975104;28;20030;-92
2021/07/13 07:35:29;;;;;;;1.40;0.70;;;;;;;43.35;18.64;98603.47;4957277;28;20019;-89
2021/07/13 07:37:55;;;;;;;1.33;0.60;;;;;;;41.70;21.53;98600.94;4958100;28;20031;-93
2021/07/13 07:40:22;;;;;;;1.70;0.80;;;;;;;42.08;20.64;98602.63;4957688;28;20031;-90
2021/07/13 07:42:50;;;;;;;7.15;1.00;;;;;;;40.62;22.51;98584.25;4974567;28;20110;-94
2021/07/13 07:45:17;;;;;;;0.80;0.80;;;;;;;40.81;21.29;98617.78;4957626;28;20029;-93
2021/07/13 07:47:42;;;;;;;0.75;0.45;;;;;;;41.84;20.74;98608.09;4964945;28;20038;-96
2021/07/13 07:50:09;;;;;;;0.65;0.65;;;;;;;41.97;21.26;98605.75;4958565;28;20035;-95
2021/07/13 07:52:35;;;;;;;0.88;0.80;;;;;;;41.06;21.02;98590.72;4975041;28;20051;-92
2021/07/13 07:55:02;;;;;;;4.00;1.03;;;;;;;41.83;20.13;98611.69;4974514;28;20042;-94
2021/07/13 07:57:28;;;;;;;0.65;0.65;;;;;;;41.68;21.43;98560.22;4961021;28;20027;-92
2021/07/13 07:59:53;;;;;;;0.93;0.93;;;;;;;41.49;22.15;98578.22;4961150;28;20505;-96
2021/07/13 08:02:18;;;;;;;0.63;0.57;;;;;;;40.63;21.43;98613.97;4957096;28;20062;-91
2021/07/13 08:04:44;;;;;;;0.82;0.60;;;;;;;39.24;24.35;98592.94;4974721;28;20023;-96
2021/07/13 08:07:09;;;;;;;0.93;0.93;;;;;;;38.68;24.56;98597.03;4974981;28;20041;-96
2021/07/13 08:09:35;;;;;;;1.50;1.17;;;;;;;38.19;25.78;98599.22;4957866;28;20026;-94
2021/07/13 08:12:01;;;;;;;2.03;1.33;;;;;;;37.75;26.29;98583.59;4959331;28;20034;-96
2021/07/13 08:14:26;;;;;;;3.70;0.98;;;;;;;36.54;28.25;98590.28;4960369;28;20503;-90
2021/07/13 08:16:53;;;;;;;1.17;1.08;;;;;;;35.43;29.58;98601.47;4957655;28;20035;-95
2021/07/13 08:19:19;;;;;;;1.15;1.05;;;;;;;34.12;32.47;98586.09;4959114;28;20037;-96
2021/07/13 08:21:45;;;;;;;5.70;1.25;;;;;;;33.75;31.95;98571.88;4963567;28;20474;-95
2021/07/13 08:24:11;;;;;;;0.75;0.63;;;;;;;33.51;34.05;98524.13;4967333;28;20035;-95
2021/07/13 08:26:37;;;;;;;0.63;0.63;;;;;;;33.44;34.84;98488.53;5270068;23;20076;-96
2021/07/13 08:29:03;;;;;;;2.05;0.98;;;;;;;33.92;35.26;98523.00;5004496;28;20030;-95
2021/07/13 08:31:29;;;;;;;0.45;0.45;;;;;;;34.16;35.74;98577.78;5004802;28;20026;-96
2021/07/13 08:33:55;;;;;;;0.65;0.60;;;;;;;33.84;34.21;98542.47;5004719;28;20025;-96
2021/07/13 08:36:20;;;;;;;0.47;0.47;;;;;;;33.82;35.76;98533.69;5001085;28;20038;-96
2021/07/13 08:38:46;;;;;;;1.25;1.00;;;;;;;33.90;35.79;98522.84;5002114;28;20065;-95
2021/07/13 08:41:12;;;;;;;8.88;2.63;;;;;;;34.10;34.88;98577.34;4999849;28;20045;-96
2021/07/13 08:43:37;;;;;;;0.77;0.70;;;;;;;33.53;34.74;98576.59;4999919;28;20026;-96
2021/07/13 08:46:03;;;;;;;1.42;0.93;;;;;;;33.75;34.54;98563.28;5001367;28;20121;-96
2021/07/13 08:48:30;;;;;;;1.95;0.85;;;;;;;33.30;34.54;98555.44;5000296;28;20026;-95
2021/07/13 08:51:00;;;;;;;1.08;1.00;;;;;;;33.31;35.00;98568.41;5000754;28;20030;-92
2021/07/13 08:53:26;;;;;;;1.60;1.50;;;;;;;32.81;33.90;98551.56;4999358;28;20061;-92
2021/07/13 08:55:55;;;;;;;0.38;0.38;;;;;;;32.73;33.73;98568.13;4998801;28;20035;-95
2021/07/13 08:58:22;;;;;;;1.10;0.82;;;;;;;32.71;37.00;98556.50;4998988;28;20022;-91
2021/07/13 09:00:49;;;;;;;1.38;1.30;;;;;;;32.60;36.20;98557.75;4999646;28;20030;-94
2021/07/13 09:03:19;;;;;;;1.20;0.93;;;;;;;32.39;33.44;98536.69;5000986;28;20056;-94
2021/07/13 09:05:50;;;;;;;2.58;1.48;;;;;;;32.72;34.77;98569.47;5000297;28;20038;-93
2021/07/13 09:08:21;;;;;;;1.45;1.30;;;;;;;32.96;35.67;98559.19;4998372;28;20117;-93
2021/07/13 09:11:13;;;;;;;1.67;1.08;;;;;;;32.38;35.21;98544.50;4998919;28;20033;-94
2021/07/13 09:13:47;;;;;;;7.57;1.15;;;;;;;32.41;35.80;98551.16;4998846;28;20102;-95
2021/07/13 09:16:18;;;;;;;1.25;1.15;;;;;;;32.38;35.47;98563.75;5016990;28;20030;-96
2021/07/13 09:18:46;;;;;;;0.80;0.80;;;;;;;31.74;35.54;98511.31;4999631;28;20105;-93
2021/07/13 09:21:16;;;;;;;1.13;0.95;;;;;;;32.35;35.62;98556.38;4999496;28;20053;-95
2021/07/13 09:24:09;;;;;;;1.55;1.10;;;;;;;32.56;34.63;98550.94;5009340;28;20613;-95
2021/07/13 09:26:41;;;;;;;1.42;1.42;;;;;;;32.71;36.53;98550.78;4980036;28;20066;-93
2021/07/13 09:29:27;;;;;;;1.00;0.98;;;;;;;32.68;34.38;98557.66;4980353;28;20053;-93
2021/07/13 09:31:53;;;;;;;1.20;1.17;;;;;;;32.65;34.84;98555.97;4963530;28;20045;-95
2021/07/13 09:34:20;;;;;;;0.90;0.40;;;;;;;32.45;35.52;98554.31;4979829;28;20026;-94
2021/07/13 09:36:53;;;;;;;0.98;0.70;;;;;;;32.24;34.87;98552.69;4980907;28;20473;-95
2021/07/13 09:39:25;;;;;;;0.90;0.90;;;;;;;32.34;35.14;98561.34;4979026;28;20061;-92
2021/07/13 09:41:55;;;;;;;2.15;1.73;;;;;;;32.25;34.68;98547.75;4979074;28;20030;-93
2021/07/13 09:44:24;;;;;;;0.38;0.38;;;;;;;32.15;35.40;98546.88;4978721;28;20038;-93
2021/07/13 09:46:51;;;;;;;0.88;0.88;;;;;;;32.35;34.32;98547.78;4988165;28;20027;-96
2021/07/13 09:49:21;;;;;;;0.80;0.75;;;;;;;32.33;37.63;98549.13;4981647;28;20029;-94
2021/07/13 09:51:57;;;;;;;1.02;0.82;;;;;;;32.34;37.41;98549.91;4979658;28;20089;-90
2021/07/13 09:54:37;;;;;;;1.15;1.00;;;;;;;32.31;33.06;98546.09;4978532;28;20104;-92
2021/07/13 09:57:11;;;;;;;2.85;1.08;;;;;;;32.45;33.42;98540.03;4979884;28;20494;-93
2021/07/13 09:59:37;;;;;;;18.83;0.98;;;;;;;32.28;34.66;98527.28;4978831;28;20121;-89
2021/07/13 10:02:05;;;;;;;1.55;0.65;;;;;;;32.45;36.40;98509.31;4978034;28;20117;-94
2021/07/13 10:04:32;;;;;;;1.25;0.95;;;;;;;32.30;33.80;98486.66;4978614;28;20022;-92
2021/07/13 10:07:02;;;;;;;1.37;1.27;;;;;;;32.84;33.80;98521.78;4978240;28;20088;-92
2021/07/13 10:09:32;;;;;;;1.35;1.25;;;;;;;32.93;35.06;98532.50;4977934;28;20269;-94
2021/07/13 10:11:57;;;;;;;0.65;0.65;;;;;;;32.77;32.99;98534.09;4977728;28;20028;-95
2021/07/13 10:14:23;;;;;;;0.88;0.75;;;;;;;32.81;34.53;98527.91;4977858;28;20117;-93
2021/07/13 10:16:50;;;;;;;1.23;1.05;;;;;;;32.90;33.66;98507.19;4977785;28;20057;-90
2021/07/13 10:19:15;;;;;;;1.05;0.70;;;;;;;33.32;34.94;98524.09;4977963;28;20027;-92
2021/07/13 10:21:44;;;;;;;1.55;0.85;;;;;;;33.42;34.69;98517.03;4977478;28;20029;-91
2021/07/13 10:24:10;;;;;;;0.75;0.75;;;;;;;33.10;31.59;98512.38;4977830;28;20034;-92
2021/07/13 10:26:48;;;;;;;0.75;0.75;;;;;;;32.67;31.44;98470.34;4979028;28;20050;-93
2021/07/13 10:29:34;;;;;;;1.55;0.85;;;;;;;32.98;32.56;98491.38;4978010;28;20049;-95
2021/07/13 10:32:04;;;;;;;1.55;0.85;;;;;;;32.90;33.13;98519.38;4977366;28;20042;-94
2021/07/13 10:34:55;;;;;;;1.08;0.98;;;;;;;32.55;32.78;98515.13;4977938;28;20034;-92
2021/07/13 10:37:36;;;;;;;0.80;0.75;;;;;;;32.94;33.76;98511.13;4977457;28;20037;-94
2021/07/13 10:40:11;;;;;;;0.60;0.50;;;;;;;33.15;34.05;98509.84;4977587;28;20109;-93
2021/07/13 10:42:40;;;;;;;0.45;0.40;;;;;;;33.15;33.57;98504.88;4978046;28;20494;-94
2021/07/13 10:45:19;;;;;;;3.33;1.08;;;;;;;32.98;32.98;98491.38;4980139;28;20482;-95
2021/07/13 10:48:05;;;;;;;0.75;0.63;;;;;;;33.00;30.00;98505.88;4997499;28;20038;-91
2021/07/13 10:50:30;;;;;;;0.60;0.60;;;;;;;32.73;30.36;98510.88;4980674;28;20026;-92
2021/07/13 10:53:17;;;;;;;1.58;1.17;;;;;;;32.83;30.61;98508.06;4981184;28;20037;-95
2021/07/13 10:55:47;;;;;;;1.45;1.02;;;;;;;32.90;30.90;98502.22;4979404;28;20092;-95
2021/07/13 10:58:16;;;;;;;1.05;0.68;;;;;;;32.96;29.91;98493.34;4980705;28;20159;-96
2021/07/13 11:00:47;;;;;;;0.82;0.63;;;;;;;32.91;28.80;98497.25;4980345;28;20026;-94
2021/07/13 11:03:35;;;;;;;1.10;1.10;;;;;;;32.81;29.21;98487.84;4984953;28;20064;-96
2021/07/13 11:06:05;;;;;;;1.08;0.98;;;;;;;32.83;30.49;98497.38;4984165;28;20429;-95
2021/07/13 11:08:56;;;;;;;1.02;0.85;;;;;;;32.58;28.92;98479.59;4984093;28;20073;-95
2021/07/13 11:11:27;;;;;;;0.57;0.57;;;;;;;32.78;29.21;98480.47;4978715;28;20062;-93
2021/07/13 11:13:58;;;;;;;0.50;0.50;;;;;;;32.42;30.48;98430.44;4994776;28;20022;-92
2021/07/13 11:16:28;;;;;;;0.70;0.70;;;;;;;33.00;32.07;98476.47;4976854;28;20552;-93
2021/07/13 11:18:55;;;;;;;2.33;0.47;;;;;;;32.89;29.52;98462.72;4977098;28;20030;-90
2021/07/13 11:21:24;;;;;;;0.85;0.77;;;;;;;32.84;28.63;98475.22;4977329;28;20409;-92
2021/07/13 11:23:58;;;;;;;0.63;0.50;;;;;;;32.96;29.75;98465.47;4976668;28;20034;-89
2021/07/13 11:26:26;;;;;;;0.77;0.70;;;;;;;33.00;29.84;98474.38;4976664;28;20109;-96
2021/07/13 11:28:56;;;;;;;;;;;;;;;32.96;28.78;98464.72;4977965;28;20100;-92
2021/07/13 11:31:25;;;;;;;1.85;0.82;;;;;;;32.73;28.27;98459.38;4976952;28;19917;-94
2021/07/13 11:33:55;;;;;;;1.10;1.10;;;;;;;32.87;30.93;98463.31;4978031;28;20041;-93
2021/07/13 11:36:25;;;;;;;0.47;0.47;;;;;;;32.97;30.63;98455.53;4976511;28;20102;-89
2021/07/13 11:38:51;;;;;;;1.15;0.82;;;;;;;32.92;30.95;98433.66;4994360;28;20030;-92
2021/07/13 11:41:16;;;;;;;0.57;0.57;;;;;;;32.73;28.96;98410.72;4994384;28;20073;-90
2021/07/13 11:43:43;;;;;;;1.65;0.88;;;;;;;32.84;29.71;98427.31;4976591;28;20041;-92
2021/07/13 11:46:15;;;;;;;1.57;0.77;;;;;;;32.82;28.46;98410.00;4981251;28;20048;-93
2021/07/13 11:48:52;;;;;;;0.90;0.77;;;;;;;32.90;28.50;98418.44;4981037;28;20006;-94
2021/07/13 11:51:26;;;;;;;0.63;0.57;;;;;;;32.98;28.30;98448.44;4979564;28;20034;-94
2021/07/13 11:54:08;;;;;;;0.85;0.85;;;;;;;33.17;27.66;98438.38;4980225;28;20018;-95
2021/07/13 11:56:35;;;;;;;1.55;0.55;;;;;;;33.28;29.14;98435.72;4977055;28;20183;-92
2021/07/13 11:59:02;;;;;;;0.68;0.68;;;;;;;33.23;27.57;98444.63;4976121;28;20030;-92
2021/07/13 12:01:29;;;;;;;1.33;1.23;;;;;;;33.16;27.16;98420.47;4981042;28;20508;-90
2021/07/13 12:04:01;;;;;;;1.33;1.23;;;;;;;32.99;29.13;98392.69;4981622;28;20037;-95
2021/07/13 12:06:26;;;;;;;0.93;0.93;;;;;;;33.05;27.91;98403.84;4998414;28;20026;-90
2021/07/13 12:09:21;;;;;;;1.55;1.05;;;;;;;32.91;26.57;98394.97;4981393;28;20556;-92
2021/07/13 12:11:47;;;;;;;0.38;0.38;;;;;;;32.98;27.98;98404.75;4971805;28;20049;-93
2021/07/13 12:14:15;;;;;;;0.82;0.52;;;;;;;33.07;27.39;98427.69;4999426;28;20030;-92
2021/07/13 12:16:42;;;;;;;0.40;0.40;;;;;;;33.07;28.04;98421.97;4982244;28;20023;-94
2021/07/13 12:19:20;;;;;;;0.40;0.40;;;;;;;33.08;28.82;98423.47;4982157;28;20032;-92
2021/07/13 12:21:53;;;;;;;1.05;0.88;;;;;;;33.03;27.71;98424.53;4981735;28;20049;-94
2021/07/13 12:24:24;;;;;;;0.73;0.55;;;;;;;33.09;27.29;98409.91;4982100;28;20058;-93
2021/07/13 12:26:54;;;;;;;20.05;0.70;;;;;;;32.92;27.42;98387.88;4998834;28;20112;-90
2021/07/13 12:29:22;;;;;;;5.15;1.35;;;;;;;32.64;27.25;98371.34;4981197;28;20113;-92
2021/07/13 12:31:47;;;;;;;;;;;;;;;33.02;27.55;98414.41;4980619;28;20034;-91
2021/07/13 12:34:19;;;;;;;0.40;0.40;;;;;;;32.87;29.10;98393.88;4996961;28;19913;-94
2021/07/13 12:36:45;;;;;;;1.30;1.00;;;;;;;32.92;27.58;98381.38;4979532;28;20034;-92
2021/07/13 12:39:17;;;;;;;0.75;0.75;;;;;;;32.62;28.02;98337.59;4996782;28;20088;-91
2021/07/13 12:41:45;;;;;;;0.90;0.90;;;;;;;32.99;29.45;98389.84;4979687;28;20038;-91
2021/07/13 12:44:47;;;;;;;0.98;0.98;;;;;;;33.17;29.51;98392.56;4979361;28;20057;-90
2021/07/13 12:47:19;;;;;;;0.40;0.40;;;;;;;33.07;29.17;98399.06;4930476;28;20039;-91
2021/07/13 12:49:59;;;;;;;1.45;1.00;;;;;;;32.90;28.83;98375.53;4996948;28;20026;-93
2021/07/13 12:52:34;;;;;;;0.68;0.68;;;;;;;33.13;28.39;98405.25;4980920;28;20188;-92
2021/07/13 12:55:02;;;;;;;0.70;0.70;;;;;;;33.09;28.75;98396.34;4979833;28;20030;-94
2021/07/13 12:57:38;;;;;;;0.75;0.75;;;;;;;32.64;28.16;98343.50;4979843;28;20022;-89
2021/07/13 13:00:12;;;;;;;1.33;0.93;;;;;;;33.20;30.86;98391.41;4979357;28;20217;-92
2021/07/13 13:02:38;;;;;;;1.17;0.70;;;;;;;33.19;30.21;98361.28;4979125;28;20126;-91
2021/07/13 13:05:09;;;;;;;1.17;0.90;;;;;;;33.32;30.59;98386.59;4979333;28;20199;-94
2021/07/13 13:07:36;;;;;;;1.38;0.60;;;;;;;33.28;29.81;98380.56;4979497;28;20042;-96
2021/07/13 13:10:02;;;;;;;1.10;0.82;;;;;;;33.40;29.40;98385.09;4979422;28;20026;-93
2021/07/13 13:12:27;;;;;;;1.55;1.15;;;;;;;33.18;28.86;98374.84;4980365;28;20038;-92
2021/07/13 13:14:53;;;;;;;1.33;1.23;;;;;;;33.34;29.48;98375.28;4979023;28;20027;-93
2021/07/13 13:17:18;;;;;;;0.63;0.63;;;;;;;33.20;28.23;98374.25;4979686;28;20030;-93
2021/07/13 13:19:46;;;;;;;0.65;0.65;;;;;;;33.27;29.59;98384.81;4978984;28;20026;-92
2021/07/13 13:22:13;;;;;;;0.80;0.80;;;;;;;33.17;29.14;98349.63;4978799;28;20066;-91
2021/07/13 13:24:40;;;;;;;2.10;1.02;;;;;;;33.46;28.07;98373.31;4978656;28;20026;-93
2021/07/13 13:27:07;;;;;;;1.30;1.20;;;;;;;33.20;27.35;98354.94;4980641;28;20141;-95
2021/07/13 13:29:33;;;;;;;11.80;2.05;;;;;;;33.47;27.81;98381.31;4979500;28;20042;-90
2021/07/13 13:32:00;;;;;;;0.65;0.65;;;;;;;33.51;27.51;98369.44;4979615;28;20505;-91
2021/07/13 13:34:25;;;;;;;0.65;0.60;;;;;;;33.48;27.80;98356.28;4979344;28;20037;-92
2021/07/13 13:36:54;;;;;;;2.47;1.00;;;;;;;33.49;27.08;98378.63;4979366;28;20030;-91
2021/07/13 13:39:20;;;;;;;0.70;0.70;;;;;;;33.37;28.32;98360.53;4979448;28;20053;-90
2021/07/13 13:41:50;;;;;;;0.83;0.83;;;;;;;33.44;27.39;98362.50;4978577;28;20034;-90
2021/07/13 13:44:15;;;;;;;0.85;0.60;;;;;;;33.60;27.82;98376.50;4979789;28;20030;-92
2021/07/13 13:46:41;;;;;;;0.77;0.77;;;;;;;33.56;26.83;98371.22;4980406;28;20034;-94
2021/07/13 13:49:06;;;;;;;0.80;0.80;;;;;;;33.58;27.26;98374.22;4980268;28;20029;-93
2021/07/13 13:51:33;;;;;;;1.95;0.90;;;;;;;33.61;27.84;98373.03;4980245;28;20034;-96
2021/07/13 13:53:58;;;;;;;1.08;0.98;;;;;;;33.33;26.86;98325.88;4981499;28;20058;-96
2021/07/13 13:56:27;;;;;;;7.10;1.17;;;;;;;33.50;28.05;98342.13;4979467;28;20455;-94
2021/07/13 13:58:53;;;;;;;0.50;0.50;;;;;;;33.05;28.95;98298.69;4978987;28;20163;-96
2021/07/13 14:01:19;;;;;;;0.85;0.85;;;;;;;33.62;27.96;98365.19;4978729;28;20066;-92
2021/07/13 14:03:45;;;;;;;1.67;1.58;;;;;;;33.65;27.24;98349.63;4978498;28;20093;-93
2021/07/13 14:06:11;;;;;;;1.65;1.13;;;;;;;33.63;26.72;98358.09;4996948;28;20030;-92
2021/07/13 14:08:39;;;;;;;2.05;0.93;;;;;;;33.49;27.56;98361.44;4978320;28;20022;-91
2021/07/13 14:11:05;;;;;;;;;;;;;;;33.53;27.75;98356.00;4978559;28;20041;-94
2021/07/13 14:13:31;;;;;;;29.45;1.42;;;;;;;33.44;27.37;98356.00;4978747;28;19909;-92
2021/07/13 14:15:58;;;;;;;0.77;0.70;;;;;;;33.53;27.95;98360.97;4995688;28;20046;-92
2021/07/13 14:18:24;;;;;;;2.47;1.30;;;;;;;33.61;28.76;98358.72;4978549;28;20030;-93
2021/07/13 14:20:51;;;;;;;0.90;0.90;;;;;;;33.32;27.52;98335.06;4980139;28;20030;-93
2021/07/13 14:23:18;;;;;;;1.33;1.23;;;;;;;33.33;27.21;98348.03;4978777;28;20133;-94
2021/07/13 14:25:43;;;;;;;1.05;0.98;;;;;;;33.40;27.84;98353.56;4976983;28;20406;-92
2021/07/13 14:28:09;;;;;;;3.75;1.42;;;;;;;33.46;28.33;98353.28;4996501;28;20050;-94
2021/07/13 14:30:34;;;;;;;2.45;1.50;;;;;;;33.38;28.25;98375.59;4979953;28;20034;-93
2021/07/13 14:33:00;;;;;;;1.90;1.70;;;;;;;33.35;29.04;98351.03;4979729;28;20470;-93
2021/07/13 14:35:25;;;;;;;0.80;0.80;;;;;;;33.43;29.33;98366.72;4980792;28;20026;-94
2021/07/13 14:37:51;;;;;;;1.05;1.05;;;;;;;32.74;28.07;98277.72;5000233;28;20050;-94
2021/07/13 14:40:19;;;;;;;0.90;0.90;;;;;;;32.75;28.28;98284.19;4980794;28;20088;-96
2021/07/13 14:42:45;;;;;;;0.57;0.50;;;;;;;32.73;27.30;98279.81;4981102;28;20030;-94
2021/07/13 14:45:11;;;;;;;0.85;0.85;;;;;;;33.34;28.69;98349.50;4980453;28;20498;-93
2021/07/13 14:47:39;;;;;;;0.95;0.95;;;;;;;33.41;27.34;98369.41;4980163;28;20041;-95
2021/07/13 14:50:07;;;;;;;0.90;0.82;;;;;;;33.42;27.53;98364.44;4980350;28;20053;-93
2021/07/13 14:52:32;;;;;;;0.40;0.40;;;;;;;32.72;26.66;98251.84;4980348;28;20569;-93
2021/07/13 14:54:59;;;;;;;0.40;0.40;;;;;;;33.31;27.92;98324.94;4978938;28;20058;-94
2021/07/13 14:57:25;;;;;;;0.93;0.88;;;;;;;33.46;26.63;98339.72;4980032;28;20057;-92
2021/07/13 14:59:50;;;;;;;0.70;0.70;;;;;;;33.48;27.27;98344.84;4997833;28;20034;-92
2021/07/13 15:02:16;;;;;;;1.15;0.73;;;;;;;33.48;26.95;98353.44;4978160;28;20037;-95
2021/07/13 15:04:42;;;;;;;1.38;1.27;;;;;;;33.46;27.00;98338.94;4978069;28;20026;-93
2021/07/13 15:07:07;;;;;;;4.38;0.65;;;;;;;33.48;26.42;98347.69;4978187;28;20062;-94
2021/07/13 15:09:32;;;;;;;0.80;0.80;;;;;;;33.42;25.72;98347.25;4980526;28;20088;-96
2021/07/13 15:11:58;;;;;;;1.63;0.93;;;;;;;33.41;27.18;98331.41;4981201;28;20030;-93
2021/07/13 15:14:24;;;;;;;1.27;1.05;;;;;;;33.11;27.35;98310.59;4998448;28;20026;-95
2021/07/13 15:16:49;;;;;;;0.95;0.95;;;;;;;33.27;28.82;98319.69;4979886;28;20094;-92
2021/07/13 15:19:15;;;;;;;0.45;0.45;;;;;;;33.21;27.49;98332.78;4982714;28;20077;-96
2021/07/13 15:21:41;;;;;;;0.95;0.85;;;;;;;33.27;27.60;98344.72;4982652;28;20033;-94
2021/07/13 15:24:09;;;;;;;0.73;0.70;;;;;;;33.33;27.78;98330.84;4981714;28;20023;-94
2021/07/13 15:26:35;;;;;;;0.60;0.60;;;;;;;33.16;27.74;98331.69;4981599;28;20585;-91
2021/07/13 15:29:01;;;;;;;0.80;0.80;;;;;;;33.17;28.27;98324.63;4977436;28;20089;-93
2021/07/13 15:31:26;;;;;;;0.73;0.63;;;;;;;33.27;28.00;98334.00;4994359;28;20034;-90
2021/07/13 15:33:52;;;;;;;0.70;0.70;;;;;;;32.53;27.48;98231.75;4982571;28;20027;-96
2021/07/13 15:36:17;;;;;;;1.23;1.08;;;;;;;32.54;27.55;98253.28;4966967;28;20026;-94
2021/07/13 15:38:43;;;;;;;0.88;0.85;;;;;;;33.10;27.47;98322.66;4978247;28;20030;-94
2021/07/13 15:41:08;;;;;;;2.03;1.33;;;;;;;32.59;29.04;98249.38;4977404;28;20031;-91
2021/07/13 15:43:34;;;;;;;1.38;1.27;;;;;;;32.90;28.53;98313.31;4976551;28;20049;-90
2021/07/13 15:45:59;;;;;;;0.85;0.60;;;;;;;33.03;28.11;98323.56;4978766;28;20046;-96
2021/07/13 15:48:25;;;;;;;0.52;0.47;;;;;;;32.97;28.09;98308.78;4980283;28;20031;-94
2021/07/13 15:50:50;;;;;;;1.00;0.70;;;;;;;32.98;27.53;98316.00;5001138;28;20038;-96
2021/07/13 15:53:16;;;;;;;1.27;0.80;;;;;;;33.01;28.31;98329.13;5000770;28;20485;-96
2021/07/13 15:55:42;;;;;;;1.00;0.90;;;;;;;32.72;28.17;98286.94;4983829;28;20061;-96
2021/07/13 15:58:08;;;;;;;1.30;0.93;;;;;;;32.94;27.65;98325.06;4981659;28;20026;-94
2021/07/13 16:00:35;;;;;;;0.98;0.80;;;;;;;32.84;28.61;98315.72;4981321;28;20065;-96
2021/07/13 16:03:01;;;;;;;1.53;1.00;;;;;;;32.75;28.28;98312.81;4981399;28;20440;-94
2021/07/13 16:05:26;;;;;;;0.70;0.70;;;;;;;32.71;29.21;98319.75;4980298;28;20054;-93
2021/07/13 16:07:55;;;;;;;0.98;0.77;;;;;;;32.85;29.28;98328.66;4996896;28;20034;-96
2021/07/13 16:10:20;;;;;;;1.58;1.02;;;;;;;32.79;29.50;98325.34;4979417;28;20383;-93
2021/07/13 16:12:46;;;;;;;0.95;0.63;;;;;;;32.78;28.56;98320.22;4980706;28;20081;-93